sensor_id;sensor_type;location;lat;lon;timestamp;P1;P2;P0
66336;PMS1003;53139;45.576;5.304;2023-08-30T00:02:37;4.33;1.00;1.00
66336;PMS1003;53139;45.576;5.304;2023-08-30T00:05:41;5.33;3.00;3.00
66336;PMS1003;53139;45.576;5.304;2023-08-30T00:08:42;1.50;1.50;1.00
66336;PMS1003;53139;45.576;5.304;2023-08-30T00:11:42;1.00;1.00;1.00
66336;PMS1003;53139;45.576;5.304;2023-08-30T00:14:42;1.00;1.00;0.75
66336;PMS1003;53139;45.576;5.304;2023-08-30T00:17:43;5.25;3.00;2.50
66336;PMS1003;53139;45.576;5.304;2023-08-30T00:20:43;4.00;3.25;1.50
66336;PMS1003;53139;45.576;5.304;2023-08-30T00:23:44;4.00;3.00;1.00
66336;PMS1003;53139;45.576;5.304;2023-08-30T00:26:44;5.50;3.25;2.50
66336;PMS1003;53139;45.576;5.304;2023-08-30T00:29:45;5.00;3.00;3.00
66336;PMS1003;53139;45.576;5.304;2023-08-30T00:32:45;1.75;1.00;1.00
66336;PMS1003;53139;45.576;5.304;2023-08-30T00:35:45;4.50;2.75;2.50
66336;PMS1003;53139;45.576;5.304;2023-08-30T00:38:46;1.00;1.00;0.00
66336;PMS1003;53139;45.576;5.304;2023-08-30T00:41:46;1.00;1.00;1.00
66336;PMS1003;53139;45.576;5.304;2023-08-30T00:44:46;1.50;1.50;1.00
66336;PMS1003;53139;45.576;5.304;2023-08-30T00:47:47;3.00;0.75;0.75
66336;PMS1003;53139;45.576;5.304;2023-08-30T00:50:47;2.00;1.00;1.00
66336;PMS1003;53139;45.576;5.304;2023-08-30T00:53:48;2.00;1.00;1.00
66336;PMS1003;53139;45.576;5.304;2023-08-30T00:56:49;1.00;1.00;0.75
66336;PMS1003;53139;45.576;5.304;2023-08-30T00:59:51;0.75;0.75;0.50
66336;PMS1003;53139;45.576;5.304;2023-08-30T01:02:54;0.50;0.00;0.00
66336;PMS1003;53139;45.576;5.304;2023-08-30T01:05:55;1.00;1.00;1.00
66336;PMS1003;53139;45.576;5.304;2023-08-30T01:08:55;1.00;1.00;1.00
66336;PMS1003;53139;45.576;5.304;2023-08-30T01:15:17;0.25;0.25;0.00
66336;PMS1003;53139;45.576;5.304;2023-08-30T01:18:19;1.00;1.00;1.00
66336;PMS1003;53139;45.576;5.304;2023-08-30T01:21:39;1.00;1.00;1.00
66336;PMS1003;53139;45.576;5.304;2023-08-30T01:24:58;2.25;1.00;1.00
66336;PMS1003;53139;45.576;5.304;2023-08-30T01:28:09;1.00;1.00;1.00
66336;PMS1003;53139;45.576;5.304;2023-08-30T01:31:10;1.50;1.50;1.50
66336;PMS1003;53139;45.576;5.304;2023-08-30T01:34:13;1.00;1.00;1.00
66336;PMS1003;53139;45.576;5.304;2023-08-30T01:37:15;1.00;1.00;1.00
66336;PMS1003;53139;45.576;5.304;2023-08-30T01:40:16;1.00;1.00;1.00
66336;PMS1003;53139;45.576;5.304;2023-08-30T01:43:18;1.00;1.00;0.75
66336;PMS1003;53139;45.576;5.304;2023-08-30T01:46:21;1.00;1.00;1.00
66336;PMS1003;53139;45.576;5.304;2023-08-30T01:49:23;1.00;1.00;1.00
66336;PMS1003;53139;45.576;5.304;2023-08-30T01:52:27;2.00;1.00;1.00
66336;PMS1003;53139;45.576;5.304;2023-08-30T01:55:28;2.00;2.00;1.50
66336;PMS1003;53139;45.576;5.304;2023-08-30T01:58:29;4.00;1.00;1.00
66336;PMS1003;53139;45.576;5.304;2023-08-30T02:01:30;2.50;2.50;1.00
66336;PMS1003;53139;45.576;5.304;2023-08-30T02:04:30;5.00;3.75;3.00
66336;PMS1003;53139;45.576;5.304;2023-08-30T02:07:35;3.25;1.00;1.00
66336;PMS1003;53139;45.576;5.304;2023-08-30T02:10:40;3.00;3.00;2.50
66336;PMS1003;53139;45.576;5.304;2023-08-30T02:13:44;2.50;1.00;1.00
66336;PMS1003;53139;45.576;5.304;2023-08-30T02:16:46;4.75;1.00;0.75
66336;PMS1003;53139;45.576;5.304;2023-08-30T02:19:47;1.00;1.00;1.00
66336;PMS1003;53139;45.576;5.304;2023-08-30T02:22:48;2.00;2.00;1.00
66336;PMS1003;53139;45.576;5.304;2023-08-30T02:25:48;3.50;1.00;1.00
66336;PMS1003;53139;45.576;5.304;2023-08-30T02:28:49;1.00;1.00;1.00
66336;PMS1003;53139;45.576;5.304;2023-08-30T02:31:49;2.50;1.00;1.00
66336;PMS1003;53139;45.576;5.304;2023-08-30T02:34:50;1.00;1.00;1.00
66336;PMS1003;53139;45.576;5.304;2023-08-30T02:37:51;1.00;0.25;0.00
66336;PMS1003;53139;45.576;5.304;2023-08-30T02:40:52;3.00;1.00;1.00
66336;PMS1003;53139;45.576;5.304;2023-08-30T02:43:52;0.33;0.00;0.00
66336;PMS1003;53139;45.576;5.304;2023-08-30T02:46:52;4.00;1.00;1.00
66336;PMS1003;53139;45.576;5.304;2023-08-30T02:49:53;0.50;0.50;0.50
66336;PMS1003;53139;45.576;5.304;2023-08-30T02:52:53;1.00;1.00;0.00
66336;PMS1003;53139;45.576;5.304;2023-08-30T02:55:53;1.50;0.00;0.00
66336;PMS1003;53139;45.576;5.304;2023-08-30T02:58:55;6.50;5.00;3.75
66336;PMS1003;53139;45.576;5.304;2023-08-30T03:01:55;3.00;3.00;3.00
66336;PMS1003;53139;45.576;5.304;2023-08-30T03:04:56;3.00;3.00;3.00
66336;PMS1003;53139;45.576;5.304;2023-08-30T03:07:56;2.50;2.50;1.00
66336;PMS1003;53139;45.576;5.304;2023-08-30T03:11:06;3.75;3.00;3.00
66336;PMS1003;53139;45.576;5.304;2023-08-30T03:14:07;1.00;1.00;0.50
66336;PMS1003;53139;45.576;5.304;2023-08-30T03:17:08;2.50;1.00;1.00
66336;PMS1003;53139;45.576;5.304;2023-08-30T03:20:08;1.00;1.00;1.00
66336;PMS1003;53139;45.576;5.304;2023-08-30T03:23:10;1.50;1.50;1.00
66336;PMS1003;53139;45.576;5.304;2023-08-30T03:26:10;2.50;2.50;1.00
66336;PMS1003;53139;45.576;5.304;2023-08-30T03:29:12;3.50;3.00;2.00
66336;PMS1003;53139;45.576;5.304;2023-08-30T03:32:16;3.00;3.00;1.50
66336;PMS1003;53139;45.576;5.304;2023-08-30T03:35:18;3.25;1.50;1.00
66336;PMS1003;53139;45.576;5.304;2023-08-30T03:38:20;7.00;3.25;2.50
66336;PMS1003;53139;45.576;5.304;2023-08-30T03:41:20;3.00;2.33;2.33
66336;PMS1003;53139;45.576;5.304;2023-08-30T03:44:21;3.67;1.00;1.00
66336;PMS1003;53139;45.576;5.304;2023-08-30T03:47:22;3.00;1.00;1.00
66336;PMS1003;53139;45.576;5.304;2023-08-30T03:50:22;3.00;3.00;1.00
66336;PMS1003;53139;45.576;5.304;2023-08-30T03:53:23;3.00;3.00;1.00
66336;PMS1003;53139;45.576;5.304;2023-08-30T03:56:24;3.25;3.00;1.00
66336;PMS1003;53139;45.576;5.304;2023-08-30T03:59:24;3.00;1.00;1.00
66336;PMS1003;53139;45.576;5.304;2023-08-30T04:02:27;3.00;1.00;1.00
66336;PMS1003;53139;45.576;5.304;2023-08-30T04:05:31;4.00;1.00;1.00
66336;PMS1003;53139;45.576;5.304;2023-08-30T04:08:33;1.50;1.00;1.00
66336;PMS1003;53139;45.576;5.304;2023-08-30T04:11:33;3.00;3.00;1.50
66336;PMS1003;53139;45.576;5.304;2023-08-30T04:14:33;4.00;3.25;3.00
66336;PMS1003;53139;45.576;5.304;2023-08-30T04:17:34;0.00;0.00;0.00
66336;PMS1003;53139;45.576;5.304;2023-08-30T04:20:34;3.00;3.00;1.00
66336;PMS1003;53139;45.576;5.304;2023-08-30T04:23:35;4.00;4.00;3.00
66336;PMS1003;53139;45.576;5.304;2023-08-30T04:26:35;3.50;2.50;1.00
66336;PMS1003;53139;45.576;5.304;2023-08-30T04:29:36;2.50;2.50;2.00
66336;PMS1003;53139;45.576;5.304;2023-08-30T04:32:36;1.00;1.00;1.00
66336;PMS1003;53139;45.576;5.304;2023-08-30T04:35:36;1.67;1.67;1.00
66336;PMS1003;53139;45.576;5.304;2023-08-30T04:38:37;1.00;1.00;0.50
66336;PMS1003;53139;45.576;5.304;2023-08-30T04:41:37;4.00;2.33;1.00
66336;PMS1003;53139;45.576;5.304;2023-08-30T04:44:37;1.00;1.00;0.50
66336;PMS1003;53139;45.576;5.304;2023-08-30T04:47:38;3.33;3.33;3.00
66336;PMS1003;53139;45.576;5.304;2023-08-30T04:50:38;1.50;1.00;1.00
66336;PMS1003;53139;45.576;5.304;2023-08-30T04:53:38;4.00;3.00;3.00
66336;PMS1003;53139;45.576;5.304;2023-08-30T04:56:41;3.00;3.00;3.00
66336;PMS1003;53139;45.576;5.304;2023-08-30T04:59:42;3.00;1.00;1.00
66336;PMS1003;53139;45.576;5.304;2023-08-30T05:02:43;1.00;1.00;1.00
66336;PMS1003;53139;45.576;5.304;2023-08-30T05:05:46;5.00;2.00;0.75
66336;PMS1003;53139;45.576;5.304;2023-08-30T05:08:46;3.00;3.00;1.00
66336;PMS1003;53139;45.576;5.304;2023-08-30T05:11:47;1.00;1.00;0.50
66336;PMS1003;53139;45.576;5.304;2023-08-30T05:14:47;3.00;3.00;3.00
66336;PMS1003;53139;45.576;5.304;2023-08-30T05:17:47;3.25;2.50;2.00
66336;PMS1003;53139;45.576;5.304;2023-08-30T05:20:48;3.67;3.00;3.00
66336;PMS1003;53139;45.576;5.304;2023-08-30T05:23:48;3.67;3.00;1.00
66336;PMS1003;53139;45.576;5.304;2023-08-30T05:26:48;4.00;3.00;1.67
66336;PMS1003;53139;45.576;5.304;2023-08-30T05:29:49;3.00;1.50;1.00
66336;PMS1003;53139;45.576;5.304;2023-08-30T05:32:49;4.00;3.00;3.00
66336;PMS1003;53139;45.576;5.304;2023-08-30T05:35:49;5.25;1.00;1.00
66336;PMS1003;53139;45.576;5.304;2023-08-30T05:38:50;1.00;1.00;0.75
66336;PMS1003;53139;45.576;5.304;2023-08-30T05:41:50;2.00;1.67;1.00
66336;PMS1003;53139;45.576;5.304;2023-08-30T05:44:51;5.50;4.00;3.00
66336;PMS1003;53139;45.576;5.304;2023-08-30T05:47:52;3.25;3.25;2.00
66336;PMS1003;53139;45.576;5.304;2023-08-30T05:50:53;2.00;2.00;2.00
66336;PMS1003;53139;45.576;5.304;2023-08-30T05:53:53;5.75;4.75;3.75
66336;PMS1003;53139;45.576;5.304;2023-08-30T05:56:54;3.50;3.25;2.25
66336;PMS1003;53139;45.576;5.304;2023-08-30T05:59:54;3.00;3.00;2.50
66336;PMS1003;53139;45.576;5.304;2023-08-30T06:02:54;3.75;3.00;3.00
66336;PMS1003;53139;45.576;5.304;2023-08-30T06:05:55;3.00;3.00;1.00
66336;PMS1003;53139;45.576;5.304;2023-08-30T06:08:55;9.00;5.67;3.33
66336;PMS1003;53139;45.576;5.304;2023-08-30T06:11:55;3.25;3.25;3.00
66336;PMS1003;53139;45.576;5.304;2023-08-30T06:14:56;6.75;3.75;2.25
66336;PMS1003;53139;45.576;5.304;2023-08-30T06:17:56;3.25;3.25;3.00
66336;PMS1003;53139;45.576;5.304;2023-08-30T06:20:56;5.75;5.75;4.75
66336;PMS1003;53139;45.576;5.304;2023-08-30T06:23:57;11.75;7.75;5.50
66336;PMS1003;53139;45.576;5.304;2023-08-30T06:26:57;10.00;9.00;7.25
66336;PMS1003;53139;45.576;5.304;2023-08-30T06:29:59;8.00;6.00;4.50
66336;PMS1003;53139;45.576;5.304;2023-08-30T06:33:00;13.00;10.00;7.33
66336;PMS1003;53139;45.576;5.304;2023-08-30T06:36:00;12.00;12.00;9.50
66336;PMS1003;53139;45.576;5.304;2023-08-30T06:39:00;12.33;10.00;7.00
66336;PMS1003;53139;45.576;5.304;2023-08-30T06:42:01;12.50;11.75;7.75
66336;PMS1003;53139;45.576;5.304;2023-08-30T06:45:02;14.25;12.75;8.00
66336;PMS1003;53139;45.576;5.304;2023-08-30T06:48:04;13.00;13.00;9.50
66336;PMS1003;53139;45.576;5.304;2023-08-30T06:51:06;11.00;9.75;7.50
66336;PMS1003;53139;45.576;5.304;2023-08-30T06:54:06;17.33;12.67;9.67
66336;PMS1003;53139;45.576;5.304;2023-08-30T06:57:06;12.50;11.25;7.00
66336;PMS1003;53139;45.576;5.304;2023-08-30T07:00:07;13.00;13.00;9.25
66336;PMS1003;53139;45.576;5.304;2023-08-30T07:03:08;14.50;11.00;9.00
66336;PMS1003;53139;45.576;5.304;2023-08-30T07:06:08;17.50;15.25;9.50
66336;PMS1003;53139;45.576;5.304;2023-08-30T07:09:09;15.50;13.00;8.00
66336;PMS1003;53139;45.576;5.304;2023-08-30T07:12:09;18.25;16.00;10.25
66336;PMS1003;53139;45.576;5.304;2023-08-30T07:15:10;15.50;14.25;10.00
66336;PMS1003;53139;45.576;5.304;2023-08-30T07:18:10;9.75;9.25;7.00
66336;PMS1003;53139;45.576;5.304;2023-08-30T07:21:10;19.50;16.00;9.75
66336;PMS1003;53139;45.576;5.304;2023-08-30T07:24:11;20.50;20.00;14.00
66336;PMS1003;53139;45.576;5.304;2023-08-30T07:27:11;23.25;20.00;13.75
66336;PMS1003;53139;45.576;5.304;2023-08-30T07:30:12;16.75;15.25;12.00
66336;PMS1003;53139;45.576;5.304;2023-08-30T07:33:13;17.75;15.75;11.75
66336;PMS1003;53139;45.576;5.304;2023-08-30T07:36:13;22.33;18.00;12.00
66336;PMS1003;53139;45.576;5.304;2023-08-30T07:39:14;19.75;17.75;11.50
66336;PMS1003;53139;45.576;5.304;2023-08-30T07:42:14;16.00;14.00;13.00
66336;PMS1003;53139;45.576;5.304;2023-08-30T07:45:15;19.75;15.00;10.25
66336;PMS1003;53139;45.576;5.304;2023-08-30T07:48:15;15.00;13.00;10.25
66336;PMS1003;53139;45.576;5.304;2023-08-30T07:51:16;22.75;15.50;10.50
66336;PMS1003;53139;45.576;5.304;2023-08-30T07:54:16;18.33;14.33;11.00
66336;PMS1003;53139;45.576;5.304;2023-08-30T07:57:16;21.00;17.50;11.25
66336;PMS1003;53139;45.576;5.304;2023-08-30T08:00:17;16.25;14.00;9.00
66336;PMS1003;53139;45.576;5.304;2023-08-30T08:03:17;18.00;15.00;9.00
66336;PMS1003;53139;45.576;5.304;2023-08-30T08:06:18;16.00;14.75;10.00
66336;PMS1003;53139;45.576;5.304;2023-08-30T08:09:18;16.25;13.00;9.50
66336;PMS1003;53139;45.576;5.304;2023-08-30T08:12:18;15.75;13.75;10.00
66336;PMS1003;53139;45.576;5.304;2023-08-30T08:15:19;17.00;15.00;10.00
66336;PMS1003;53139;45.576;5.304;2023-08-30T08:18:19;14.00;14.00;10.00
66336;PMS1003;53139;45.576;5.304;2023-08-30T08:21:19;17.00;14.00;9.75
66336;PMS1003;53139;45.576;5.304;2023-08-30T08:24:20;15.75;13.50;10.25
66336;PMS1003;53139;45.576;5.304;2023-08-30T08:27:21;15.25;12.00;9.25
66336;PMS1003;53139;45.576;5.304;2023-08-30T08:30:21;12.33;11.33;8.33
66336;PMS1003;53139;45.576;5.304;2023-08-30T08:33:22;12.50;10.75;8.50
66336;PMS1003;53139;45.576;5.304;2023-08-30T08:36:24;12.50;12.50;9.50
66336;PMS1003;53139;45.576;5.304;2023-08-30T08:39:24;11.50;10.50;7.00
66336;PMS1003;53139;45.576;5.304;2023-08-30T08:42:24;14.25;10.75;8.75
66336;PMS1003;53139;45.576;5.304;2023-08-30T08:45:26;12.00;12.00;8.50
66336;PMS1003;53139;45.576;5.304;2023-08-30T08:48:28;10.50;8.00;5.50
66336;PMS1003;53139;45.576;5.304;2023-08-30T08:51:29;8.75;8.25;6.00
66336;PMS1003;53139;45.576;5.304;2023-08-30T08:54:30;9.75;9.75;6.50
66336;PMS1003;53139;45.576;5.304;2023-08-30T08:57:31;10.00;9.00;7.00
66336;PMS1003;53139;45.576;5.304;2023-08-30T09:00:31;13.00;10.00;6.75
66336;PMS1003;53139;45.576;5.304;2023-08-30T09:03:32;13.00;10.25;7.50
66336;PMS1003;53139;45.576;5.304;2023-08-30T09:06:35;7.25;7.00;6.25
66336;PMS1003;53139;45.576;5.304;2023-08-30T09:09:35;8.25;7.25;6.25
66336;PMS1003;53139;45.576;5.304;2023-08-30T09:12:36;7.50;6.50;5.25
66336;PMS1003;53139;45.576;5.304;2023-08-30T09:15:36;10.75;6.00;5.00
66336;PMS1003;53139;45.576;5.304;2023-08-30T09:18:37;9.75;7.50;6.00
66336;PMS1003;53139;45.576;5.304;2023-08-30T09:21:37;9.00;9.00;7.00
66336;PMS1003;53139;45.576;5.304;2023-08-30T09:24:38;6.00;6.00;5.00
66336;PMS1003;53139;45.576;5.304;2023-08-30T09:27:39;9.25;6.00;5.00
66336;PMS1003;53139;45.576;5.304;2023-08-30T09:30:41;5.00;5.00;4.00
66336;PMS1003;53139;45.576;5.304;2023-08-30T09:33:41;6.00;6.00;5.00
66336;PMS1003;53139;45.576;5.304;2023-08-30T09:36:42;6.50;5.25;4.50
66336;PMS1003;53139;45.576;5.304;2023-08-30T09:39:48;3.00;3.00;2.00
66336;PMS1003;53139;45.576;5.304;2023-08-30T09:42:49;5.75;5.00;4.50
66336;PMS1003;53139;45.576;5.304;2023-08-30T09:45:52;6.00;6.00;4.00
66336;PMS1003;53139;45.576;5.304;2023-08-30T09:48:53;2.50;2.50;2.00
66336;PMS1003;53139;45.576;5.304;2023-08-30T09:51:57;6.75;6.00;4.00
66336;PMS1003;53139;45.576;5.304;2023-08-30T09:55:01;5.00;4.75;3.25
66336;PMS1003;53139;45.576;5.304;2023-08-30T09:58:02;8.00;6.00;4.00
66336;PMS1003;53139;45.576;5.304;2023-08-30T10:01:06;7.00;5.75;4.50
66336;PMS1003;53139;45.576;5.304;2023-08-30T10:04:07;5.50;5.50;5.00
66336;PMS1003;53139;45.576;5.304;2023-08-30T10:07:11;6.00;5.75;4.75
66336;PMS1003;53139;45.576;5.304;2023-08-30T10:10:12;8.50;6.75;4.50
66336;PMS1003;53139;45.576;5.304;2023-08-30T10:13:12;4.25;4.25;3.75
66336;PMS1003;53139;45.576;5.304;2023-08-30T10:16:15;6.00;6.00;5.00
66336;PMS1003;53139;45.576;5.304;2023-08-30T10:19:23;5.00;5.00;3.00
66336;PMS1003;53139;45.576;5.304;2023-08-30T10:22:26;4.75;4.00;3.00
66336;PMS1003;53139;45.576;5.304;2023-08-30T10:25:27;5.25;5.25;4.25
66336;PMS1003;53139;45.576;5.304;2023-08-30T10:28:31;4.00;4.00;3.50
66336;PMS1003;53139;45.576;5.304;2023-08-30T10:31:34;5.00;5.00;4.00
66336;PMS1003;53139;45.576;5.304;2023-08-30T10:34:34;5.00;4.00;3.00
66336;PMS1003;53139;45.576;5.304;2023-08-30T10:37:36;7.00;6.25;5.00
66336;PMS1003;53139;45.576;5.304;2023-08-30T10:40:44;4.00;4.00;3.00
66336;PMS1003;53139;45.576;5.304;2023-08-30T10:43:48;5.00;5.00;4.00
66336;PMS1003;53139;45.576;5.304;2023-08-30T10:46:54;3.25;3.25;3.00
66336;PMS1003;53139;45.576;5.304;2023-08-30T10:49:55;3.50;3.50;3.00
66336;PMS1003;53139;45.576;5.304;2023-08-30T10:52:57;4.00;4.00;4.00
66336;PMS1003;53139;45.576;5.304;2023-08-30T10:56:09;4.00;4.00;3.00
66336;PMS1003;53139;45.576;5.304;2023-08-30T10:59:15;5.00;5.00;3.75
66336;PMS1003;53139;45.576;5.304;2023-08-30T11:02:17;4.50;4.00;3.25
66336;PMS1003;53139;45.576;5.304;2023-08-30T11:05:18;6.75;5.50;4.50
66336;PMS1003;53139;45.576;5.304;2023-08-30T11:08:21;8.75;5.00;4.00
66336;PMS1003;53139;45.576;5.304;2023-08-30T11:11:21;4.00;4.00;3.75
66336;PMS1003;53139;45.576;5.304;2023-08-30T11:14:24;3.75;3.75;3.00
66336;PMS1003;53139;45.576;5.304;2023-08-30T11:17:25;7.25;6.00;4.25
66336;PMS1003;53139;45.576;5.304;2023-08-30T11:20:27;6.00;5.50;4.75
66336;PMS1003;53139;45.576;5.304;2023-08-30T11:23:27;5.00;5.00;4.00
66336;PMS1003;53139;45.576;5.304;2023-08-30T11:26:27;4.75;3.50;3.00
66336;PMS1003;53139;45.576;5.304;2023-08-30T11:29:28;3.75;3.00;2.50
66336;PMS1003;53139;45.576;5.304;2023-08-30T11:32:31;5.00;4.25;3.25
66336;PMS1003;53139;45.576;5.304;2023-08-30T11:35:35;4.00;4.00;3.00
66336;PMS1003;53139;45.576;5.304;2023-08-30T11:38:37;4.00;4.00;3.00
66336;PMS1003;53139;45.576;5.304;2023-08-30T11:41:37;4.00;4.00;3.00
66336;PMS1003;53139;45.576;5.304;2023-08-30T11:44:39;6.50;4.25;4.00
66336;PMS1003;53139;45.576;5.304;2023-08-30T11:47:40;5.00;3.50;2.75
66336;PMS1003;53139;45.576;5.304;2023-08-30T11:50:41;6.00;4.75;3.50
66336;PMS1003;53139;45.576;5.304;2023-08-30T11:53:42;4.00;4.00;3.50
66336;PMS1003;53139;45.576;5.304;2023-08-30T11:56:44;5.00;3.00;3.00
66336;PMS1003;53139;45.576;5.304;2023-08-30T11:59:44;4.00;4.00;3.00
66336;PMS1003;53139;45.576;5.304;2023-08-30T12:02:47;3.50;3.25;2.75
66336;PMS1003;53139;45.576;5.304;2023-08-30T12:05:50;2.75;2.75;2.25
66336;PMS1003;53139;45.576;5.304;2023-08-30T12:08:56;4.00;3.50;2.25
66336;PMS1003;53139;45.576;5.304;2023-08-30T12:12:04;3.50;3.50;3.25
66336;PMS1003;53139;45.576;5.304;2023-08-30T12:15:14;2.25;2.25;2.00
66336;PMS1003;53139;45.576;5.304;2023-08-30T12:18:15;4.00;3.25;3.00
66336;PMS1003;53139;45.576;5.304;2023-08-30T12:21:16;2.25;2.25;2.00
66336;PMS1003;53139;45.576;5.304;2023-08-30T12:24:16;4.50;3.50;3.00
66336;PMS1003;53139;45.576;5.304;2023-08-30T12:27:16;5.00;3.25;3.00
66336;PMS1003;53139;45.576;5.304;2023-08-30T12:30:17;2.00;2.00;1.00
66336;PMS1003;53139;45.576;5.304;2023-08-30T12:33:18;3.00;3.00;2.25
66336;PMS1003;53139;45.576;5.304;2023-08-30T12:36:18;2.00;2.00;2.00
66336;PMS1003;53139;45.576;5.304;2023-08-30T12:39:19;3.00;3.00;2.75
66336;PMS1003;53139;45.576;5.304;2023-08-30T12:42:19;4.00;3.00;3.00
66336;PMS1003;53139;45.576;5.304;2023-08-30T12:45:19;2.00;2.00;2.00
66336;PMS1003;53139;45.576;5.304;2023-08-30T12:48:20;3.00;2.75;2.50
66336;PMS1003;53139;45.576;5.304;2023-08-30T12:51:20;3.00;3.00;2.00
66336;PMS1003;53139;45.576;5.304;2023-08-30T12:54:20;2.50;2.50;2.50
66336;PMS1003;53139;45.576;5.304;2023-08-30T12:57:21;3.00;3.00;3.00
66336;PMS1003;53139;45.576;5.304;2023-08-30T13:00:21;4.00;4.00;3.00
66336;PMS1003;53139;45.576;5.304;2023-08-30T13:03:22;3.00;2.25;2.00
66336;PMS1003;53139;45.576;5.304;2023-08-30T13:06:23;2.00;2.00;2.00
66336;PMS1003;53139;45.576;5.304;2023-08-30T13:09:23;3.00;2.50;2.00
66336;PMS1003;53139;45.576;5.304;2023-08-30T13:12:24;2.75;2.75;2.00
66336;PMS1003;53139;45.576;5.304;2023-08-30T13:15:24;1.50;1.50;1.50
66336;PMS1003;53139;45.576;5.304;2023-08-30T13:18:25;2.00;2.00;2.00
66336;PMS1003;53139;45.576;5.304;2023-08-30T13:21:25;2.75;2.75;2.50
66336;PMS1003;53139;45.576;5.304;2023-08-30T13:24:26;2.25;2.25;2.00
66336;PMS1003;53139;45.576;5.304;2023-08-30T13:27:26;2.75;2.75;2.00
66336;PMS1003;53139;45.576;5.304;2023-08-30T13:30:26;2.75;2.75;2.00
66336;PMS1003;53139;45.576;5.304;2023-08-30T13:33:27;4.00;3.00;3.00
66336;PMS1003;53139;45.576;5.304;2023-08-30T13:36:27;1.50;1.50;1.25
66336;PMS1003;53139;45.576;5.304;2023-08-30T13:39:27;2.25;2.25;2.00
66336;PMS1003;53139;45.576;5.304;2023-08-30T13:42:28;2.00;2.00;1.75
66336;PMS1003;53139;45.576;5.304;2023-08-30T13:45:28;3.50;2.50;2.00
66336;PMS1003;53139;45.576;5.304;2023-08-30T13:48:29;2.00;1.00;1.00
66336;PMS1003;53139;45.576;5.304;2023-08-30T13:51:29;3.00;3.00;2.00
66336;PMS1003;53139;45.576;5.304;2023-08-30T13:54:30;5.00;3.00;2.50
66336;PMS1003;53139;45.576;5.304;2023-08-30T13:57:30;1.75;1.75;1.75
66336;PMS1003;53139;45.576;5.304;2023-08-30T14:00:30;3.00;3.00;3.00
66336;PMS1003;53139;45.576;5.304;2023-08-30T14:03:31;2.00;2.00;2.00
66336;PMS1003;53139;45.576;5.304;2023-08-30T14:06:31;4.00;2.75;2.00
66336;PMS1003;53139;45.576;5.304;2023-08-30T14:09:32;2.00;2.00;1.25
66336;PMS1003;53139;45.576;5.304;2023-08-30T14:12:32;3.25;2.00;2.00
66336;PMS1003;53139;45.576;5.304;2023-08-30T14:15:34;2.00;2.00;1.50
66336;PMS1003;53139;45.576;5.304;2023-08-30T14:18:34;3.00;2.00;2.00
66336;PMS1003;53139;45.576;5.304;2023-08-30T14:21:34;1.75;1.00;1.00
66336;PMS1003;53139;45.576;5.304;2023-08-30T14:24:35;2.25;2.25;1.00
66336;PMS1003;53139;45.576;5.304;2023-08-30T14:27:35;3.00;2.25;2.00
66336;PMS1003;53139;45.576;5.304;2023-08-30T14:30:35;4.75;2.75;2.75
66336;PMS1003;53139;45.576;5.304;2023-08-30T14:33:36;3.00;3.00;2.00
66336;PMS1003;53139;45.576;5.304;2023-08-30T14:36:37;2.50;2.50;2.00
66336;PMS1003;53139;45.576;5.304;2023-08-30T14:39:38;2.50;2.00;2.00
66336;PMS1003;53139;45.576;5.304;2023-08-30T14:42:38;1.00;1.00;0.75
66336;PMS1003;53139;45.576;5.304;2023-08-30T14:45:39;2.25;2.25;2.00
66336;PMS1003;53139;45.576;5.304;2023-08-30T14:48:39;2.00;2.00;1.00
66336;PMS1003;53139;45.576;5.304;2023-08-30T14:51:40;2.00;2.00;2.00
66336;PMS1003;53139;45.576;5.304;2023-08-30T14:54:40;2.25;2.25;2.25
66336;PMS1003;53139;45.576;5.304;2023-08-30T14:57:41;2.50;2.00;2.00
66336;PMS1003;53139;45.576;5.304;2023-08-30T15:00:42;3.00;2.00;2.00
66336;PMS1003;53139;45.576;5.304;2023-08-30T15:03:42;3.00;3.00;2.50
66336;PMS1003;53139;45.576;5.304;2023-08-30T15:06:43;1.75;1.75;1.75
66336;PMS1003;53139;45.576;5.304;2023-08-30T15:09:44;1.50;1.50;1.00
66336;PMS1003;53139;45.576;5.304;2023-08-30T15:12:45;2.25;2.25;2.00
66336;PMS1003;53139;45.576;5.304;2023-08-30T15:15:45;2.00;2.00;1.50
66336;PMS1003;53139;45.576;5.304;2023-08-30T15:18:46;4.50;2.00;2.00
66336;PMS1003;53139;45.576;5.304;2023-08-30T15:21:46;3.00;2.00;1.75
66336;PMS1003;53139;45.576;5.304;2023-08-30T15:24:47;1.00;1.00;0.50
66336;PMS1003;53139;45.576;5.304;2023-08-30T15:27:47;3.50;2.75;2.25
66336;PMS1003;53139;45.576;5.304;2023-08-30T15:30:47;2.00;2.00;2.00
66336;PMS1003;53139;45.576;5.304;2023-08-30T15:33:51;3.00;2.00;2.00
66336;PMS1003;53139;45.576;5.304;2023-08-30T15:36:51;1.75;1.75;1.50
66336;PMS1003;53139;45.576;5.304;2023-08-30T15:39:58;3.00;3.00;2.50
66336;PMS1003;53139;45.576;5.304;2023-08-30T15:43:04;2.00;2.00;2.00
66336;PMS1003;53139;45.576;5.304;2023-08-30T15:46:06;1.75;1.75;1.25
66336;PMS1003;53139;45.576;5.304;2023-08-30T15:49:07;3.75;3.00;3.00
66336;PMS1003;53139;45.576;5.304;2023-08-30T15:52:08;2.00;2.00;2.00
66336;PMS1003;53139;45.576;5.304;2023-08-30T15:55:09;2.25;2.25;2.00
66336;PMS1003;53139;45.576;5.304;2023-08-30T15:58:09;2.75;1.25;1.00
66336;PMS1003;53139;45.576;5.304;2023-08-30T16:01:09;2.00;2.00;1.25
66336;PMS1003;53139;45.576;5.304;2023-08-30T16:04:10;2.25;2.25;2.00
66336;PMS1003;53139;45.576;5.304;2023-08-30T16:07:10;3.00;3.00;2.00
66336;PMS1003;53139;45.576;5.304;2023-08-30T16:10:11;2.50;2.00;2.00
66336;PMS1003;53139;45.576;5.304;2023-08-30T16:13:11;3.00;3.00;2.00
66336;PMS1003;53139;45.576;5.304;2023-08-30T16:16:11;2.00;2.00;2.00
66336;PMS1003;53139;45.576;5.304;2023-08-30T16:19:12;4.25;3.50;2.25
66336;PMS1003;53139;45.576;5.304;2023-08-30T16:22:12;3.75;2.75;2.00
66336;PMS1003;53139;45.576;5.304;2023-08-30T16:25:13;2.00;2.00;2.00
66336;PMS1003;53139;45.576;5.304;2023-08-30T16:28:14;3.75;2.00;2.00
66336;PMS1003;53139;45.576;5.304;2023-08-30T16:31:14;3.75;2.50;2.00
66336;PMS1003;53139;45.576;5.304;2023-08-30T16:34:18;2.75;2.75;2.50
66336;PMS1003;53139;45.576;5.304;2023-08-30T16:37:19;0.75;0.75;0.75
66336;PMS1003;53139;45.576;5.304;2023-08-30T16:40:20;2.00;2.00;2.00
66336;PMS1003;53139;45.576;5.304;2023-08-30T16:43:21;2.00;2.00;2.00
66336;PMS1003;53139;45.576;5.304;2023-08-30T16:46:21;2.75;2.75;2.00
66336;PMS1003;53139;45.576;5.304;2023-08-30T16:49:21;3.00;3.00;2.75
66336;PMS1003;53139;45.576;5.304;2023-08-30T16:52:22;1.25;1.25;1.25
66336;PMS1003;53139;45.576;5.304;2023-08-30T16:55:22;3.00;1.75;1.00
66336;PMS1003;53139;45.576;5.304;2023-08-30T16:58:23;2.25;1.50;1.50
66336;PMS1003;53139;45.576;5.304;2023-08-30T17:01:23;3.00;2.00;1.00
66336;PMS1003;53139;45.576;5.304;2023-08-30T17:04:24;2.00;1.50;1.00
66336;PMS1003;53139;45.576;5.304;2023-08-30T17:07:24;8.75;8.75;7.75
66336;PMS1003;53139;45.576;5.304;2023-08-30T17:10:24;3.75;2.00;1.00
66336;PMS1003;53139;45.576;5.304;2023-08-30T17:13:25;1.75;1.75;1.00
66336;PMS1003;53139;45.576;5.304;2023-08-30T17:16:25;2.00;2.00;1.75
66336;PMS1003;53139;45.576;5.304;2023-08-30T17:19:26;3.00;1.25;1.00
66336;PMS1003;53139;45.576;5.304;2023-08-30T17:22:26;2.50;1.25;1.00
66336;PMS1003;53139;45.576;5.304;2023-08-30T17:25:27;4.00;4.00;3.50
66336;PMS1003;53139;45.576;5.304;2023-08-30T17:28:27;3.50;3.50;3.00
66336;PMS1003;53139;45.576;5.304;2023-08-30T17:31:27;2.50;2.00;2.00
66336;PMS1003;53139;45.576;5.304;2023-08-30T17:34:28;2.00;2.00;2.00
66336;PMS1003;53139;45.576;5.304;2023-08-30T17:37:28;4.00;2.00;1.75
66336;PMS1003;53139;45.576;5.304;2023-08-30T17:40:32;2.75;2.25;2.00